createdAt,value
2022-12-28T05:16:40.819Z,101936.97
2022-12-28T05:22:43.617Z,101932.72
2022-12-28T05:28:45.862Z,101936.81
2022-12-28T05:34:47.951Z,101942.41
2022-12-28T05:40:50.017Z,101931.44
2022-12-28T05:46:52.636Z,101941.91
2022-12-28T05:52:54.755Z,101958.50
2022-12-28T05:58:59.523Z,101956.91
2022-12-28T06:05:02.024Z,101968.94
2022-12-28T06:11:07.163Z,101975.72
2022-12-28T06:17:12.775Z,101985.94
2022-12-28T06:23:15.657Z,101983.31
2022-12-28T06:29:17.719Z,101991.19
2022-12-28T06:35:22.701Z,101990.97
2022-12-28T06:41:26.049Z,101992.91
2022-12-28T06:47:29.816Z,102003.66
2022-12-28T06:53:35.176Z,102016.50
2022-12-28T06:59:37.251Z,102025.03
2022-12-28T07:05:40.590Z,102031.41
2022-12-28T07:11:45.752Z,102034.91
2022-12-28T07:17:47.789Z,102016.25
2022-12-28T07:23:51.720Z,102038.56
2022-12-28T07:29:54.388Z,102045.19
2022-12-28T07:35:58.704Z,102034.00
2022-12-28T07:42:06.425Z,102044.31
2022-12-28T07:48:08.506Z,102045.59
2022-12-28T07:54:10.679Z,102047.63
2022-12-28T08:00:14.119Z,102046.19
2022-12-28T08:06:20.019Z,102051.00
2022-12-28T08:12:23.221Z,102055.47
2022-12-28T08:18:25.877Z,102061.88
2022-12-28T08:24:28.095Z,102057.84
2022-12-28T08:30:31.235Z,102061.81
2022-12-28T08:36:33.262Z,102065.56
2022-12-28T08:42:35.360Z,102056.59
2022-12-28T08:48:37.664Z,102059.94
2022-12-28T08:54:40.439Z,102061.00
2022-12-28T09:00:44.101Z,102052.72
2022-12-28T09:06:47.678Z,102046.06
2022-12-28T09:12:49.816Z,102037.25
2022-12-28T09:18:59.250Z,102043.59
2022-12-28T09:25:01.869Z,102043.44
2022-12-28T09:31:06.049Z,102032.91
2022-12-28T09:37:08.933Z,102032.69
2022-12-28T09:43:30.213Z,102035.44
2022-12-28T09:50:11.484Z,102026.16
2022-12-28T09:56:38.175Z,102021.31
2022-12-28T10:02:41.531Z,102011.28
2022-12-28T10:08:52.484Z,101995.03
2022-12-28T10:15:01.590Z,101988.22
2022-12-28T10:21:05.373Z,101975.91
2022-12-28T10:27:20.900Z,101971.38
2022-12-28T10:33:24.190Z,101957.84
2022-12-28T10:39:29.880Z,101967.00
2022-12-28T10:45:48.366Z,101951.78
2022-12-28T10:52:18.487Z,101956.94
2022-12-28T10:58:33.929Z,101962.56
2022-12-28T11:04:36.572Z,101949.97
2022-12-28T11:10:41.812Z,101945.66
2022-12-28T11:16:44.547Z,101936.75
2022-12-28T11:22:47.748Z,101939.31
2022-12-28T11:28:54.903Z,101926.09
2022-12-28T11:34:58.428Z,101916.09
2022-12-28T11:41:03.854Z,101913.50
2022-12-28T11:47:16.583Z,101913.00
2022-12-28T11:53:43.609Z,101908.06
2022-12-28T11:59:46.255Z,101923.38
2022-12-28T12:05:51.999Z,101900.31
2022-12-28T12:12:24.686Z,101907.78
2022-12-28T12:18:29.362Z,101897.50
2022-12-28T12:24:50.632Z,101897.75
2022-12-28T12:30:56.721Z,101882.97
2022-12-28T12:37:36.198Z,101876.09
2022-12-28T12:43:50.373Z,101873.97
2022-12-28T12:49:57.395Z,101872.09
2022-12-28T12:56:22.744Z,101860.75
2022-12-28T13:02:52.959Z,101859.91
2022-12-28T13:09:04.958Z,101864.06
2022-12-28T13:15:17.188Z,101854.06
2022-12-28T13:21:25.854Z,101847.63
2022-12-28T13:27:36.421Z,101846.00
2022-12-28T13:33:43.103Z,101842.19
2022-12-28T13:39:47.389Z,101827.44
2022-12-28T13:46:02.901Z,101835.00
2022-12-28T13:52:14.168Z,101841.94
2022-12-28T13:58:28.741Z,101849.88
2022-12-28T14:10:56.519Z,101836.72
2022-12-28T14:16:58.947Z,101844.81
2022-12-28T14:23:29.593Z,101848.28
2022-12-28T14:29:34.622Z,101835.78
2022-12-28T14:35:42.720Z,101834.69
2022-12-28T14:41:47.001Z,101837.94
2022-12-28T14:47:57.075Z,101848.78
2022-12-28T14:54:19.544Z,101852.50
2022-12-28T15:00:23.856Z,101848.56
2022-12-28T15:06:31.401Z,101848.78
2022-12-28T15:12:34.640Z,101849.63
2022-12-28T15:18:43.615Z,101846.06
2022-12-28T15:24:46.675Z,101853.75
2022-12-28T15:30:52.427Z,101845.19
2022-12-28T15:36:54.706Z,101851.09
2022-12-28T15:42:57.055Z,101855.53
2022-12-28T15:49:02.172Z,101855.47
2022-12-28T15:55:05.682Z,101849.03
2022-12-28T16:01:07.996Z,101833.47
2022-12-28T16:07:11.789Z,101863.47
2022-12-28T16:13:14.616Z,101860.59
2022-12-28T16:19:17.127Z,101860.19
2022-12-28T16:25:19.240Z,101858.41
2022-12-28T16:31:28.650Z,101854.06
2022-12-28T16:37:30.885Z,101846.56
2022-12-28T16:43:34.501Z,101855.34
2022-12-28T16:49:39.674Z,101849.28
2022-12-28T16:55:42.825Z,101848.28
2022-12-28T17:01:45.457Z,101850.56
2022-12-28T17:07:48.556Z,101865.28
2022-12-28T17:13:51.851Z,101854.69
2022-12-28T17:19:54.749Z,101852.19
2022-12-28T17:25:56.895Z,101856.44
2022-12-28T17:31:58.977Z,101850.16
2022-12-28T17:38:02.178Z,101854.94
2022-12-28T17:44:06.108Z,101850.28
2022-12-28T17:50:10.536Z,101835.91
2022-12-28T17:56:14.483Z,101839.06
2022-12-28T18:02:17.767Z,101840.41
2022-12-28T18:08:21.907Z,101835.41
2022-12-28T18:14:25.019Z,101832.63
2022-12-28T18:20:27.360Z,101821.72
2022-12-28T18:26:30.853Z,101825.44
2022-12-28T18:32:35.450Z,101817.66
2022-12-28T18:38:43.399Z,101823.66
2022-12-28T18:44:47.930Z,101828.41
2022-12-28T18:51:15.816Z,101827.56
2022-12-28T18:57:17.905Z,101833.81
2022-12-28T19:03:20.930Z,101835.78
2022-12-28T19:09:23.246Z,101829.75
2022-12-28T19:15:26.913Z,101827.56
2022-12-28T19:21:31.516Z,101817.41
2022-12-28T19:27:33.729Z,101821.84
2022-12-28T19:33:38.793Z,101823.06
2022-12-28T19:39:41.545Z,101812.94
2022-12-28T19:45:43.631Z,101823.78
2022-12-28T19:51:47.171Z,101825.69
2022-12-28T19:57:51.874Z,101835.78
2022-12-28T20:03:56.256Z,101818.94
2022-12-28T20:09:58.374Z,101816.09
2022-12-28T20:16:01.820Z,101835.88
2022-12-28T20:22:04.032Z,101839.22
2022-12-28T20:28:06.172Z,101840.94
2022-12-28T20:34:08.348Z,101824.72
2022-12-28T20:40:11.181Z,101823.00
2022-12-28T20:46:13.381Z,101819.81
2022-12-28T20:52:15.644Z,101821.28
2022-12-28T20:58:18.687Z,101819.88
2022-12-28T21:04:21.794Z,101820.31
2022-12-28T21:10:24.187Z,101806.00
2022-12-28T21:16:26.357Z,101821.22
2022-12-28T21:22:28.447Z,101824.44
2022-12-28T21:28:30.617Z,101808.44
2022-12-28T21:34:34.241Z,101810.97
2022-12-28T21:40:41.556Z,101800.94
2022-12-28T21:46:44.686Z,101804.34
2022-12-28T21:52:47.075Z,101802.84
2022-12-28T21:58:53.366Z,101781.94
2022-12-28T22:05:14.377Z,101789.59
2022-12-28T22:11:54.581Z,101786.22
2022-12-28T22:18:04.236Z,101783.53
2022-12-28T22:24:07.310Z,101767.88
2022-12-28T22:30:10.339Z,101756.88
2022-12-28T22:36:20.889Z,101762.72
2022-12-28T22:42:24.636Z,101745.13
2022-12-28T22:48:28.230Z,101750.53
2022-12-28T22:54:30.316Z,101752.75
2022-12-28T23:00:32.397Z,101759.03
2022-12-28T23:06:36.113Z,101746.78
2022-12-28T23:12:39.252Z,101745.94
2022-12-28T23:18:59.747Z,101750.38
2022-12-28T23:25:20.713Z,101738.78
2022-12-28T23:31:22.876Z,101734.72
2022-12-28T23:37:24.966Z,101731.75
2022-12-28T23:43:27.134Z,101740.25
2022-12-28T23:49:29.738Z,101741.91
2022-12-28T23:55:33.588Z,101733.53
